Terminal Aerodrome Forecast
Issued by NWS

Home | Current Version | Previous Version | Text Only | Print | Product List | Glossary On
Versions: 1 2 3 4 5 6 7 8 9 10 11 12 13 14 15 16 17 18 19 20 21
000
FTUS43 KEAX 241300 AAA
TAFMKC
TAF AMD
KMKC 241311Z 2413/2512 32011KT P6SM -RASN OVC012
      TEMPO 2413/2414 OVC009
     FM241600 32012KT P6SM OVC016
     FM242000 30010KT P6SM OVC024
     FM250400 23007KT P6SM FEW025=

USA.gov is the U.S. government's official web portal to all federal, state and local government web resources and services.